createdAt,value
2023-01-29T00:02:25.314Z,2.40
2023-01-29T00:04:58.740Z,2.44
2023-01-29T00:07:26.750Z,2.48
2023-01-29T00:09:54.737Z,2.52
2023-01-29T00:12:22.397Z,2.56
2023-01-29T00:14:50.335Z,2.59
2023-01-29T00:17:18.086Z,2.62
2023-01-29T00:19:46.018Z,2.62
2023-01-29T00:22:13.759Z,2.57
2023-01-29T00:24:41.659Z,2.52
2023-01-29T00:27:09.297Z,2.50
2023-01-29T00:29:36.943Z,2.52
2023-01-29T00:32:05.077Z,2.51
2023-01-29T00:34:32.986Z,2.49
2023-01-29T00:37:04.736Z,2.45
2023-01-29T00:39:47.339Z,2.41
2023-01-29T00:42:34.422Z,2.39
2023-01-29T00:45:02.456Z,2.40
2023-01-29T00:47:36.556Z,2.43
2023-01-29T00:50:08.169Z,2.44
2023-01-29T00:52:41.033Z,2.40
2023-01-29T00:55:10.418Z,2.36
2023-01-29T00:57:38.912Z,2.29
2023-01-29T01:00:09.777Z,2.22
2023-01-29T01:02:55.875Z,2.13
2023-01-29T01:05:24.298Z,2.00
2023-01-29T01:07:54.230Z,1.90
2023-01-29T01:10:25.284Z,1.82
2023-01-29T01:13:02.440Z,1.78
2023-01-29T01:15:34.531Z,1.72
2023-01-29T01:18:03.086Z,1.68
2023-01-29T01:20:33.246Z,1.65
2023-01-29T01:23:01.064Z,1.65
2023-01-29T01:25:28.940Z,1.59
2023-01-29T01:30:27.605Z,1.53
2023-01-29T01:32:56.303Z,1.55
2023-01-29T01:35:24.079Z,1.55
2023-01-29T01:37:52.016Z,1.57
2023-01-29T01:40:21.580Z,1.59
2023-01-29T01:42:51.341Z,1.58
2023-01-29T01:45:39.454Z,1.58
2023-01-29T01:48:18.277Z,1.61
2023-01-29T01:50:58.832Z,1.58
2023-01-29T01:53:35.425Z,1.52
2023-01-29T01:56:10.917Z,1.50
2023-01-29T01:58:42.678Z,1.50
2023-01-29T02:01:12.367Z,1.51
2023-01-29T02:04:10.594Z,1.48
2023-01-29T02:06:59.386Z,1.50
2023-01-29T02:09:35.869Z,1.53
2023-01-29T02:12:07.114Z,1.56
2023-01-29T02:14:39.496Z,1.53
2023-01-29T02:17:09.615Z,1.50
2023-01-29T02:20:11.247Z,1.48
2023-01-29T02:22:55.399Z,1.48
2023-01-29T02:25:47.319Z,1.48
2023-01-29T02:28:53.679Z,1.47
2023-01-29T02:31:41.420Z,1.46
2023-01-29T02:34:12.107Z,1.46
2023-01-29T02:37:03.600Z,1.50
2023-01-29T02:39:36.382Z,1.46
2023-01-29T02:42:17.026Z,1.45
2023-01-29T02:44:56.047Z,1.47
2023-01-29T02:47:31.108Z,1.50
2023-01-29T02:50:13.232Z,1.51
2023-01-29T02:52:54.218Z,1.55
2023-01-29T02:55:26.071Z,1.60
2023-01-29T02:57:58.260Z,1.61
2023-01-29T03:00:28.283Z,1.60
2023-01-29T03:03:14.810Z,1.60
2023-01-29T03:05:54.913Z,1.60
2023-01-29T03:08:43.008Z,1.58
2023-01-29T03:11:15.779Z,1.59
2023-01-29T03:13:59.840Z,1.60
2023-01-29T03:16:48.740Z,1.62
2023-01-29T03:19:39.807Z,1.59
2023-01-29T03:22:13.771Z,1.60
2023-01-29T03:25:05.897Z,1.59
2023-01-29T03:28:00.323Z,1.60
2023-01-29T03:30:53.003Z,1.62
2023-01-29T03:33:40.359Z,1.66
2023-01-29T03:36:45.251Z,1.66
2023-01-29T03:39:15.186Z,1.70
2023-01-29T03:41:47.664Z,1.71
2023-01-29T03:44:37.144Z,1.71
2023-01-29T03:47:13.720Z,1.69
2023-01-29T03:50:01.003Z,1.68
2023-01-29T03:52:35.980Z,1.61
2023-01-29T03:55:21.011Z,1.54
2023-01-29T03:58:12.265Z,1.47
2023-01-29T04:00:42.917Z,1.40
2023-01-29T04:03:20.982Z,1.40
2023-01-29T04:05:58.619Z,1.39
2023-01-29T04:08:34.860Z,1.39
2023-01-29T04:11:08.661Z,1.37
2023-01-29T04:13:37.021Z,1.35
2023-01-29T04:16:07.666Z,1.37
2023-01-29T04:18:50.903Z,1.41
2023-01-29T04:21:25.023Z,1.44
2023-01-29T04:23:52.927Z,1.47
2023-01-29T04:26:28.101Z,1.45
2023-01-29T04:29:38.183Z,1.39
2023-01-29T04:32:28.321Z,1.36
2023-01-29T04:35:24.757Z,1.33
2023-01-29T04:38:01.632Z,1.29
2023-01-29T04:40:41.795Z,1.28
2023-01-29T04:43:44.278Z,1.27
2023-01-29T04:46:33.720Z,1.31
2023-01-29T04:49:05.380Z,1.33
2023-01-29T04:51:55.291Z,1.34
2023-01-29T04:54:58.653Z,1.38
2023-01-29T04:57:55.911Z,1.37
2023-01-29T05:00:27.694Z,1.32
2023-01-29T05:02:56.627Z,1.28
2023-01-29T05:05:24.390Z,1.25
2023-01-29T05:07:52.763Z,1.23
2023-01-29T05:10:21.971Z,1.17
2023-01-29T05:12:55.186Z,1.14
2023-01-29T05:15:33.279Z,1.11
2023-01-29T05:18:02.953Z,1.05
2023-01-29T05:20:35.614Z,0.96
2023-01-29T05:23:03.913Z,0.92
2023-01-29T05:25:33.267Z,0.93
2023-01-29T05:28:19.331Z,0.93
2023-01-29T05:30:52.518Z,0.83
2023-01-29T05:33:22.551Z,0.77
2023-01-29T05:35:50.849Z,0.73
2023-01-29T05:38:20.131Z,0.70
2023-01-29T05:40:48.211Z,0.64
2023-01-29T05:43:18.258Z,0.64
2023-01-29T05:45:54.069Z,0.66
2023-01-29T05:48:22.019Z,0.67
2023-01-29T05:50:50.199Z,0.69
2023-01-29T05:53:17.943Z,0.70
2023-01-29T05:55:46.778Z,0.68
2023-01-29T05:58:14.812Z,0.62
2023-01-29T06:00:42.650Z,0.59
2023-01-29T06:03:10.302Z,0.58
2023-01-29T06:05:39.187Z,1.74
2023-01-29T06:08:08.121Z,3.53
2023-01-29T06:10:36.186Z,4.78
2023-01-29T06:13:03.872Z,4.80
2023-01-29T06:15:31.633Z,4.05
2023-01-29T06:17:59.384Z,3.39
2023-01-29T06:20:27.058Z,2.87
2023-01-29T06:22:54.964Z,2.45
2023-01-29T06:25:22.638Z,2.08
2023-01-29T06:27:51.392Z,1.76
2023-01-29T06:30:19.335Z,1.52
2023-01-29T06:32:47.178Z,1.36
2023-01-29T06:35:14.867Z,1.26
2023-01-29T06:37:42.625Z,1.20
2023-01-29T06:40:10.909Z,1.13
2023-01-29T06:42:38.657Z,1.02
2023-01-29T06:45:06.931Z,0.97
2023-01-29T06:47:34.648Z,0.94
2023-01-29T06:50:02.583Z,0.92
2023-01-29T06:52:30.609Z,0.91
2023-01-29T06:54:58.352Z,0.93
2023-01-29T06:57:29.214Z,0.95
2023-01-29T06:59:56.878Z,0.96
2023-01-29T07:02:24.631Z,0.99
2023-01-29T07:04:52.655Z,0.99
2023-01-29T07:07:20.304Z,1.03
2023-01-29T07:09:48.108Z,1.05
2023-01-29T07:12:16.018Z,0.99
2023-01-29T07:14:43.987Z,0.95
2023-01-29T07:17:11.712Z,0.92
2023-01-29T07:19:39.398Z,1.01
2023-01-29T07:22:07.134Z,2.15
2023-01-29T07:24:34.891Z,3.80
2023-01-29T07:27:02.720Z,4.31
2023-01-29T07:29:30.439Z,3.81
2023-01-29T07:31:58.362Z,3.21
2023-01-29T07:34:26.504Z,2.81
2023-01-29T07:36:56.816Z,2.51
2023-01-29T07:39:24.816Z,2.26
2023-01-29T07:41:52.596Z,2.05
2023-01-29T07:44:23.456Z,1.93
2023-01-29T07:46:51.139Z,1.84
2023-01-29T07:49:18.955Z,1.73
2023-01-29T07:51:46.679Z,1.66
2023-01-29T07:54:14.625Z,1.59
2023-01-29T07:56:42.414Z,1.53
2023-01-29T07:59:10.272Z,1.52
2023-01-29T08:01:37.951Z,1.54
2023-01-29T08:04:05.673Z,1.49
2023-01-29T08:06:33.347Z,1.52
2023-01-29T08:09:01.062Z,1.52
2023-01-29T08:11:28.726Z,1.53
2023-01-29T08:13:57.375Z,1.58
2023-01-29T08:16:25.143Z,1.64
2023-01-29T08:18:52.784Z,1.62
2023-01-29T08:21:20.447Z,1.61
2023-01-29T08:23:48.165Z,1.64
2023-01-29T08:26:15.924Z,1.64
2023-01-29T08:28:43.683Z,1.67
2023-01-29T08:31:16.127Z,1.69
2023-01-29T08:33:43.975Z,1.76
2023-01-29T08:36:11.713Z,1.86
2023-01-29T08:38:39.674Z,1.91
2023-01-29T08:41:07.782Z,2.01
2023-01-29T08:43:38.705Z,2.14
2023-01-29T08:46:07.551Z,2.27
2023-01-29T08:48:35.567Z,2.33
2023-01-29T08:51:04.471Z,2.41
2023-01-29T08:53:32.996Z,2.39
2023-01-29T08:56:00.847Z,2.38
2023-01-29T08:58:28.596Z,2.42
2023-01-29T14:02:35.494Z,3.64
2023-01-29T14:05:29.827Z,5.03
2023-01-29T14:08:02.349Z,6.75
2023-01-29T14:10:30.989Z,7.80
2023-01-29T14:13:04.941Z,7.79
2023-01-29T14:15:36.867Z,7.02
2023-01-29T14:18:05.064Z,6.27
2023-01-29T14:20:45.741Z,5.71
2023-01-29T14:23:27.561Z,5.28
2023-01-29T14:25:55.891Z,4.96
2023-01-29T14:28:26.980Z,4.71
2023-01-29T14:30:55.161Z,4.51
2023-01-29T14:33:32.695Z,4.57
2023-01-29T14:36:05.278Z,5.95
2023-01-29T14:38:33.687Z,7.19
2023-01-29T14:41:04.594Z,7.69
2023-01-29T14:43:32.713Z,7.01
2023-01-29T14:46:34.500Z,6.18
2023-01-29T14:49:02.809Z,5.52
2023-01-29T14:51:37.700Z,5.16
2023-01-29T14:54:21.637Z,4.87
2023-01-29T14:57:01.619Z,4.62
2023-01-29T14:59:39.580Z,4.40
2023-01-29T15:02:41.011Z,4.80
2023-01-29T15:05:18.679Z,6.45
2023-01-29T15:07:51.877Z,7.53
2023-01-29T15:10:23.721Z,7.47
2023-01-29T15:13:03.530Z,6.74
2023-01-29T15:15:44.688Z,6.12
2023-01-29T15:18:17.432Z,5.65
2023-01-29T15:20:45.283Z,5.25
2023-01-29T15:23:31.004Z,4.93
2023-01-29T15:26:04.202Z,4.60
2023-01-29T15:28:34.170Z,4.34
2023-01-29T15:31:05.372Z,4.92
2023-01-29T15:33:34.204Z,6.32
2023-01-29T15:36:07.998Z,7.28
2023-01-29T15:38:36.081Z,7.04
2023-01-29T15:41:16.957Z,6.28
2023-01-29T15:43:47.960Z,5.61
2023-01-29T15:46:23.950Z,5.11
2023-01-29T15:48:53.685Z,4.67
2023-01-29T15:51:24.319Z,4.33
2023-01-29T15:53:54.699Z,4.66
2023-01-29T15:56:31.405Z,6.01
2023-01-29T15:59:00.779Z,6.35
2023-01-29T16:01:29.439Z,5.81
2023-01-29T16:04:02.366Z,5.23
2023-01-29T16:06:35.716Z,4.82
2023-01-29T16:09:04.646Z,4.49
2023-01-29T16:11:33.627Z,4.22
2023-01-29T16:14:02.165Z,4.48
2023-01-29T16:16:30.097Z,5.89
2023-01-29T16:19:00.716Z,7.00
2023-01-29T16:21:33.211Z,7.38
2023-01-29T16:24:03.172Z,6.82
2023-01-29T16:26:36.569Z,6.08
2023-01-29T16:29:10.032Z,5.52
2023-01-29T16:31:38.887Z,5.10
2023-01-29T16:34:25.872Z,4.81
2023-01-29T16:36:54.723Z,4.57
2023-01-29T16:39:29.959Z,4.38
2023-01-29T16:42:10.774Z,4.20
2023-01-29T16:44:46.295Z,4.06
2023-01-29T16:47:25.968Z,4.85
2023-01-29T16:49:56.004Z,6.43
2023-01-29T16:52:27.898Z,7.20
2023-01-29T16:55:00.645Z,6.60
2023-01-29T16:57:33.565Z,5.75
2023-01-29T17:00:04.922Z,5.10
2023-01-29T17:02:37.600Z,4.62
2023-01-29T17:05:08.627Z,4.26
2023-01-29T17:07:36.834Z,3.98
2023-01-29T17:10:06.254Z,3.80
2023-01-29T17:12:34.136Z,4.30
2023-01-29T17:15:25.250Z,5.84
2023-01-29T17:17:52.920Z,7.23
2023-01-29T17:20:20.833Z,7.59
2023-01-29T17:22:48.528Z,6.82
2023-01-29T17:25:17.344Z,6.08
2023-01-29T17:27:51.601Z,5.51
2023-01-29T17:30:21.692Z,5.00
2023-01-29T17:32:49.477Z,4.64
2023-01-29T17:35:18.192Z,4.32
2023-01-29T17:37:46.384Z,4.04
2023-01-29T17:40:34.483Z,4.34
2023-01-29T17:43:02.275Z,5.93
2023-01-29T17:45:30.030Z,7.05
2023-01-29T17:47:58.932Z,7.08
2023-01-29T17:50:28.432Z,6.31
2023-01-29T17:52:56.146Z,5.63
2023-01-29T17:55:24.128Z,5.12
2023-01-29T17:57:52.632Z,4.70
2023-01-29T18:00:24.428Z,4.37
2023-01-29T18:02:52.165Z,4.09
2023-01-29T18:05:20.441Z,3.84
2023-01-29T18:07:48.523Z,3.94
2023-01-29T18:10:18.853Z,5.10
2023-01-29T18:12:47.061Z,5.57
2023-01-29T18:15:15.571Z,5.04
2023-01-29T18:17:44.726Z,4.57
2023-01-29T18:20:21.875Z,4.20
2023-01-29T18:22:50.105Z,3.91
2023-01-29T18:25:20.605Z,3.67
2023-01-29T18:27:48.705Z,3.48
2023-01-29T18:30:16.888Z,3.35
2023-01-29T18:32:44.657Z,3.66
2023-01-29T18:35:12.605Z,4.87
2023-01-29T18:37:40.337Z,5.67
2023-01-29T18:40:13.834Z,5.37
2023-01-29T18:42:42.021Z,4.79
2023-01-29T18:45:10.206Z,4.32
2023-01-29T18:47:38.452Z,3.96
2023-01-29T18:50:06.869Z,3.71
2023-01-29T18:52:34.784Z,3.54
2023-01-29T18:55:02.525Z,3.44
2023-01-29T18:58:27.381Z,4.08
2023-01-29T19:00:18.354Z,5.68
2023-01-29T19:02:46.821Z,5.82
2023-01-29T19:05:16.876Z,5.20
2023-01-29T19:07:45.156Z,4.64
2023-01-29T19:10:12.992Z,4.26
2023-01-29T19:12:42.323Z,3.98
2023-01-29T19:15:11.385Z,3.78
2023-01-29T19:17:39.355Z,3.63
2023-01-29T19:20:09.956Z,3.49
2023-01-29T19:22:37.733Z,3.40
2023-01-29T19:25:06.142Z,4.31
2023-01-29T19:27:34.000Z,5.65
2023-01-29T19:30:02.718Z,6.14
2023-01-29T19:32:30.746Z,5.61
2023-01-29T19:34:58.616Z,5.05
2023-01-29T19:37:26.264Z,4.65
2023-01-29T19:39:53.984Z,4.41
2023-01-29T19:42:21.944Z,4.22
2023-01-29T19:44:51.141Z,4.04
2023-01-29T19:47:21.026Z,3.85
2023-01-29T19:49:48.824Z,3.71
2023-01-29T19:52:49.850Z,3.57
2023-01-29T19:55:21.284Z,3.43
2023-01-29T19:57:52.776Z,3.98
2023-01-29T20:00:21.537Z,5.50
2023-01-29T20:02:52.197Z,6.50
2023-01-29T20:05:20.494Z,6.06
2023-01-29T20:07:49.745Z,5.34
2023-01-29T20:10:18.135Z,4.72
2023-01-29T20:12:46.313Z,4.29
2023-01-29T20:15:14.721Z,3.96
2023-01-29T20:17:45.434Z,3.70
2023-01-29T20:20:13.187Z,3.46
2023-01-29T20:22:40.860Z,3.29
2023-01-29T20:25:09.096Z,3.16
2023-01-29T20:27:36.830Z,3.17
2023-01-29T20:30:05.040Z,4.06
2023-01-29T20:32:32.942Z,5.37
2023-01-29T20:35:00.762Z,6.10
2023-01-29T20:37:28.479Z,5.68
2023-01-29T20:39:56.328Z,4.97
2023-01-29T20:42:24.909Z,4.39
2023-01-29T20:44:53.383Z,3.95
2023-01-29T20:47:21.321Z,3.61
2023-01-29T20:49:49.822Z,3.37
2023-01-29T20:52:18.228Z,3.21
2023-01-29T20:54:46.383Z,3.07
2023-01-29T20:57:14.117Z,3.28
2023-01-29T20:59:41.816Z,4.49
2023-01-29T21:02:10.835Z,5.68
2023-01-29T21:04:38.629Z,6.18
2023-01-29T21:07:06.264Z,5.68
2023-01-29T21:09:33.958Z,5.01
2023-01-29T21:12:01.751Z,4.52
2023-01-29T21:14:29.762Z,4.16
2023-01-29T21:16:57.702Z,3.87
2023-01-29T21:19:25.704Z,3.65
2023-01-29T21:21:58.124Z,3.45
2023-01-29T21:24:26.402Z,3.29
2023-01-29T21:26:54.709Z,3.17
2023-01-29T21:29:22.779Z,3.06
2023-01-29T21:31:50.586Z,2.95
2023-01-29T21:34:18.288Z,3.20
2023-01-29T21:36:47.342Z,4.55
2023-01-29T21:39:19.813Z,6.10
2023-01-29T21:42:08.517Z,7.02
2023-01-29T21:44:37.107Z,6.25
2023-01-29T21:47:14.442Z,5.39
2023-01-29T21:49:43.622Z,4.73
2023-01-29T21:52:12.749Z,4.29
2023-01-29T21:54:41.034Z,3.95
2023-01-29T21:57:12.828Z,3.70
2023-01-29T21:59:40.537Z,3.48
2023-01-29T22:02:14.080Z,3.30
2023-01-29T22:04:42.601Z,3.13
2023-01-29T22:07:11.873Z,3.03
2023-01-29T22:09:40.043Z,2.94
2023-01-29T22:12:08.434Z,2.87
2023-01-29T22:14:36.133Z,3.15
2023-01-29T22:17:04.053Z,4.54
2023-01-29T22:19:31.835Z,5.78
2023-01-29T22:21:59.970Z,6.44
2023-01-29T22:24:27.659Z,5.95
2023-01-29T22:26:55.394Z,5.25
2023-01-29T22:29:23.259Z,4.72
2023-01-29T22:31:50.945Z,4.37
2023-01-29T22:34:18.602Z,4.15
2023-01-29T22:36:46.649Z,3.93
2023-01-29T22:39:14.391Z,3.69
2023-01-29T22:41:42.066Z,3.46
2023-01-29T22:44:09.900Z,3.28
2023-01-29T22:46:37.622Z,3.16
2023-01-29T22:49:05.430Z,3.07
2023-01-29T22:51:33.125Z,3.00
2023-01-29T22:54:01.460Z,2.96
2023-01-29T22:56:32.272Z,2.92
2023-01-29T22:59:00.798Z,2.89
2023-01-29T23:01:30.674Z,2.84
2023-01-29T23:03:58.449Z,2.78
2023-01-29T23:06:26.448Z,2.74
2023-01-29T23:08:54.125Z,2.71
2023-01-29T23:11:23.656Z,2.67
2023-01-29T23:13:53.481Z,2.75
2023-01-29T23:16:25.345Z,3.88
2023-01-29T23:18:55.267Z,5.59
2023-01-29T23:21:25.040Z,6.44
2023-01-29T23:23:55.376Z,5.86
2023-01-29T23:26:41.989Z,5.14
2023-01-29T23:29:10.128Z,4.56
2023-01-29T23:31:38.128Z,4.20
2023-01-29T23:34:05.947Z,3.95
2023-01-29T23:36:33.675Z,3.74
2023-01-29T23:39:01.400Z,3.56
2023-01-29T23:41:29.064Z,3.42
2023-01-29T23:43:56.800Z,3.27
2023-01-29T23:46:24.596Z,3.13
2023-01-29T23:48:52.608Z,3.02
2023-01-29T23:51:22.123Z,2.97
2023-01-29T23:53:49.863Z,2.93
2023-01-29T23:56:17.885Z,2.86
2023-01-29T23:58:46.097Z,2.80
